createdAt,value
2019-04-20T00:01:34.064Z,8.90
2019-04-20T00:06:51.362Z,9.03
2019-04-20T00:12:08.946Z,8.67
2019-04-20T00:17:28.633Z,8.00
2019-04-20T00:22:59.726Z,8.00
2019-04-20T00:28:33.367Z,8.27
2019-04-20T00:33:41.058Z,8.53
2019-04-20T00:38:56.965Z,8.20
2019-04-20T00:44:07.999Z,7.53
2019-04-20T00:49:30.614Z,7.53
2019-04-20T00:55:29.309Z,7.30
2019-04-20T01:00:22.890Z,8.50
2019-04-20T01:05:43.706Z,7.67
2019-04-20T01:10:47.270Z,8.00
2019-04-20T01:16:21.756Z,7.70
2019-04-20T01:21:49.865Z,8.00
2019-04-20T01:27:02.490Z,8.57
2019-04-20T01:32:52.593Z,7.73
2019-04-20T01:38:00.185Z,7.93
2019-04-20T01:42:59.541Z,8.43
2019-04-20T01:48:20.548Z,8.20
2019-04-20T01:54:02.197Z,7.50
2019-04-20T01:59:47.011Z,7.63
2019-04-20T02:05:24.702Z,7.50
2019-04-20T02:10:49.054Z,7.30
2019-04-20T02:16:15.777Z,7.50
2019-04-20T02:21:40.882Z,7.70
2019-04-20T02:26:38.888Z,7.23
2019-04-20T02:32:32.210Z,7.50
2019-04-20T02:38:11.301Z,7.57
2019-04-20T02:43:28.444Z,7.13
2019-04-20T02:48:35.692Z,7.40
2019-04-20T02:54:18.768Z,8.03
2019-04-20T02:59:55.769Z,8.20
2019-04-20T03:04:28.962Z,9.10
2019-04-20T03:10:08.370Z,9.50
2019-04-20T03:15:40.131Z,9.10
2019-04-20T03:21:04.493Z,9.53
2019-04-20T03:27:30.609Z,9.63
2019-04-20T03:31:56.222Z,9.50
2019-04-20T03:42:20.154Z,9.30
2019-04-20T03:47:56.146Z,9.73
2019-04-20T03:53:28.570Z,9.47
2019-04-20T03:58:55.553Z,9.30
2019-04-20T04:04:38.835Z,9.63
2019-04-20T04:10:02.466Z,9.70
2019-04-20T04:15:08.566Z,9.77
2019-04-20T04:20:15.009Z,9.30
2019-04-20T04:26:45.605Z,10.23
2019-04-20T04:31:23.248Z,10.23
2019-04-20T04:36:44.511Z,9.73
2019-04-20T04:42:11.648Z,10.37
2019-04-20T04:47:11.944Z,10.63
2019-04-20T04:52:39.849Z,10.10
2019-04-20T04:57:58.242Z,10.50
2019-04-20T05:05:19.288Z,10.50
2019-04-20T05:14:27.086Z,9.97
2019-04-20T05:20:10.620Z,10.37
2019-04-20T05:26:58.304Z,10.73
2019-04-20T05:30:59.242Z,10.80
2019-04-20T05:36:41.498Z,10.83
2019-04-20T05:41:51.508Z,10.40
2019-04-20T05:47:21.778Z,10.67
2019-04-20T05:57:56.639Z,10.32
2019-04-20T06:03:06.002Z,10.53
2019-04-20T06:21:53.032Z,10.97
2019-04-20T06:27:29.293Z,10.67
2019-04-20T06:33:12.848Z,11.10
2019-04-20T06:38:36.542Z,10.50
2019-04-20T06:43:36.453Z,11.20
2019-04-20T06:49:05.353Z,11.57
2019-04-20T06:53:52.678Z,10.60
2019-04-20T06:59:20.040Z,10.50
2019-04-20T07:04:45.332Z,11.60
2019-04-20T07:14:49.635Z,12.07
2019-04-20T07:20:12.891Z,10.93
2019-04-20T07:25:34.519Z,11.13
2019-04-20T07:30:45.123Z,11.48
2019-04-20T07:35:50.846Z,11.60
2019-04-20T07:41:17.044Z,11.88
2019-04-20T07:46:43.890Z,11.45
2019-04-20T07:51:24.976Z,10.60
2019-04-20T07:56:52.130Z,12.17
2019-04-20T08:02:23.523Z,11.68
2019-04-20T08:07:17.512Z,11.48
2019-04-20T08:13:09.278Z,12.43
2019-04-20T08:18:19.424Z,12.68
2019-04-20T08:23:17.244Z,11.68
2019-04-20T08:28:25.250Z,11.65
2019-04-20T08:34:04.825Z,11.73
2019-04-20T08:39:28.196Z,12.35
2019-04-20T08:44:42.851Z,13.08
2019-04-20T08:49:41.318Z,12.43
2019-04-20T08:54:42.287Z,12.80
2019-04-20T09:00:30.910Z,12.00
2019-04-20T09:05:51.198Z,11.97
2019-04-20T09:11:11.963Z,12.58
2019-04-20T09:16:02.117Z,13.43
2019-04-20T09:21:24.338Z,12.37
2019-04-20T09:26:42.949Z,12.80
2019-04-20T09:32:00.768Z,13.35
2019-04-20T09:37:23.723Z,12.33
2019-04-20T09:42:32.236Z,13.43
2019-04-20T09:47:49.900Z,12.98
2019-04-20T09:53:14.180Z,12.37
2019-04-20T09:58:23.203Z,11.10
2019-04-20T10:03:18.450Z,12.33
2019-04-20T10:08:40.311Z,11.57
2019-04-20T10:13:48.389Z,11.33
2019-04-20T10:19:02.798Z,11.12
2019-04-20T10:24:12.552Z,11.73
2019-04-20T10:29:21.681Z,11.55
2019-04-20T10:34:30.564Z,11.30
2019-04-20T10:40:00.616Z,10.70
2019-04-20T10:45:12.866Z,11.30
2019-04-20T10:50:27.164Z,11.73
2019-04-20T10:55:39.729Z,11.73
2019-04-20T11:00:50.237Z,11.28
2019-04-20T11:06:04.813Z,11.55
2019-04-20T11:11:23.175Z,12.10
2019-04-20T11:16:33.942Z,12.17
2019-04-20T11:21:48.224Z,12.37
2019-04-20T11:27:02.311Z,11.15
2019-04-20T11:32:18.334Z,11.23
2019-04-20T11:37:33.150Z,9.48
2019-04-20T11:42:45.704Z,10.20
2019-04-20T11:47:59.093Z,10.55
2019-04-20T11:53:11.294Z,10.37
2019-04-20T11:58:26.423Z,10.68
2019-04-20T12:03:47.869Z,10.80
2019-04-20T12:08:52.651Z,10.57
2019-04-20T12:14:02.968Z,9.90
2019-04-20T12:19:18.645Z,10.40
2019-04-20T12:24:38.149Z,9.30
2019-04-20T12:29:54.159Z,10.98
2019-04-20T12:35:06.479Z,10.93
2019-04-20T12:40:20.250Z,10.03
2019-04-20T12:45:29.867Z,9.80
2019-04-20T12:50:41.595Z,11.18
2019-04-20T12:55:50.750Z,11.20
2019-04-20T13:01:00.582Z,9.93
2019-04-20T13:06:14.516Z,10.72
2019-04-20T13:11:44.381Z,11.57
2019-04-20T13:16:49.899Z,11.88
2019-04-20T13:22:05.158Z,11.73
2019-04-20T13:27:18.701Z,10.60
2019-04-20T13:32:35.998Z,10.95
2019-04-20T13:37:46.967Z,11.18
2019-04-20T13:43:01.680Z,8.83
2019-04-20T13:48:13.130Z,8.90
2019-04-20T13:53:27.503Z,8.48
2019-04-20T13:59:05.814Z,9.40
2019-04-20T14:04:21.088Z,8.88
2019-04-20T14:09:33.224Z,9.15
2019-04-20T14:14:44.713Z,8.98
2019-04-20T14:19:57.281Z,8.38
2019-04-20T14:25:09.164Z,9.15
2019-04-20T14:30:25.032Z,8.70
2019-04-20T14:35:36.913Z,7.70
2019-04-20T14:40:48.275Z,7.80
2019-04-20T14:46:03.167Z,8.50
2019-04-20T14:51:17.327Z,8.55
2019-04-20T14:56:27.376Z,9.13
2019-04-20T15:01:44.925Z,8.10
2019-04-20T15:06:56.781Z,9.40
2019-04-20T15:12:14.949Z,8.38
2019-04-20T15:17:51.366Z,7.47
2019-04-20T15:23:07.542Z,7.47
2019-04-20T15:28:18.642Z,11.13
2019-04-20T15:33:30.883Z,8.70
2019-04-20T15:38:40.981Z,9.80
2019-04-20T15:43:57.383Z,8.40
2019-04-20T15:49:10.853Z,7.63
2019-04-20T15:54:35.669Z,7.53
2019-04-20T15:59:48.599Z,8.63
2019-04-20T16:05:18.627Z,9.15
2019-04-20T16:10:30.912Z,10.85
2019-04-20T16:15:47.627Z,8.43
2019-04-20T16:21:09.220Z,9.98
2019-04-20T16:26:29.662Z,8.60
2019-04-20T16:31:44.040Z,7.35
2019-04-20T16:36:57.814Z,10.75
2019-04-20T16:42:08.613Z,9.93
2019-04-20T16:47:18.558Z,8.63
2019-04-20T16:52:33.195Z,8.05
2019-04-20T16:57:49.253Z,7.20
2019-04-20T17:03:23.963Z,10.78
2019-04-20T17:08:33.231Z,10.35
2019-04-20T17:13:55.344Z,7.95
2019-04-20T17:19:04.134Z,6.92
2019-04-20T17:24:19.619Z,6.58
2019-04-20T17:29:33.681Z,6.03
2019-04-20T17:34:59.917Z,6.05
2019-04-20T17:40:19.201Z,6.55
2019-04-20T17:45:41.971Z,5.58
2019-04-20T17:51:11.118Z,6.23
2019-04-20T17:56:12.145Z,8.25
2019-04-20T18:01:55.480Z,8.75
2019-04-20T18:07:04.330Z,9.60
2019-04-20T18:12:07.623Z,5.95
2019-04-20T18:17:55.066Z,4.84
2019-04-20T18:22:55.533Z,4.95
2019-04-20T18:28:27.550Z,5.00
2019-04-20T18:33:33.505Z,4.75
2019-04-20T18:38:54.051Z,5.20
2019-04-20T18:43:57.579Z,4.83
2019-04-20T18:49:23.786Z,4.83
2019-04-20T18:54:31.659Z,4.77
2019-04-20T18:59:50.479Z,5.43
2019-04-20T19:05:03.579Z,4.70
2019-04-20T19:10:27.546Z,5.50
2019-04-20T19:16:14.995Z,4.53
2019-04-20T19:21:25.007Z,5.00
2019-04-20T19:26:34.539Z,5.70
2019-04-20T19:32:24.972Z,4.97
2019-04-20T19:37:28.400Z,5.23
2019-04-20T19:42:39.560Z,4.87
2019-04-20T19:47:50.246Z,4.70
2019-04-20T19:53:11.149Z,4.90
2019-04-20T19:58:13.390Z,5.22
2019-04-20T20:03:09.985Z,5.08
2019-04-20T20:08:34.779Z,6.00
2019-04-20T20:13:52.176Z,5.22
2019-04-20T20:19:08.128Z,5.37
2019-04-20T20:24:15.733Z,6.45
2019-04-20T20:29:34.152Z,5.93
2019-04-20T20:34:43.429Z,6.03
2019-04-20T20:39:59.509Z,6.40
2019-04-20T20:45:16.131Z,6.03
2019-04-20T20:50:44.445Z,6.87
2019-04-20T20:56:22.517Z,6.78
2019-04-20T21:01:42.559Z,7.17
2019-04-20T21:06:40.638Z,8.27
2019-04-20T21:11:51.975Z,10.00
2019-04-20T21:17:10.265Z,10.23
2019-04-20T21:22:39.991Z,7.73
2019-04-20T21:27:34.932Z,7.43
2019-04-20T21:32:57.289Z,7.90
2019-04-20T21:38:10.284Z,7.47
2019-04-20T21:43:20.637Z,7.40
2019-04-20T21:49:29.107Z,7.90
2019-04-20T21:54:27.802Z,7.23
2019-04-20T21:59:45.523Z,7.93
2019-04-20T22:04:53.528Z,7.80
2019-04-20T22:10:03.268Z,8.13
2019-04-20T22:15:26.295Z,8.07
2019-04-20T22:20:42.475Z,7.70
2019-04-20T22:25:56.803Z,8.73
2019-04-20T22:31:02.489Z,8.70
2019-04-20T22:36:16.369Z,9.20
2019-04-20T22:41:27.853Z,9.70
2019-04-20T22:46:40.997Z,9.30
2019-04-20T22:51:58.636Z,9.17
2019-04-20T22:57:09.388Z,10.10
2019-04-20T23:02:21.153Z,9.77
2019-04-20T23:07:32.898Z,9.83
2019-04-20T23:12:46.913Z,10.03
2019-04-20T23:17:58.004Z,10.13
2019-04-20T23:23:33.865Z,9.97
2019-04-20T23:28:51.965Z,11.57
2019-04-20T23:34:15.398Z,11.00
2019-04-20T23:39:23.324Z,11.17
2019-04-20T23:44:54.556Z,11.07
2019-04-20T23:50:19.190Z,11.63
2019-04-20T23:55:18.698Z,12.10
